Makoti, North Dakota
Current Conditions -  °F | °C
As of 2:54 AM on Thursday 23 Oct 2014 (Local Time) from KMOT Reporting Station
Clear Clear  
Wind Chill: 41°   Ceiling: Unl
Heat Index: 47°   Visibility: 10mi
Dew Point: 34°   Wind: 13mph
Humidity: 61%   Direction: 210°SSW
Pressure: 29.83"   Gusts: NA
Location:  47.96°N, 101.8°W
Report Text: KMOT 230754Z AUTO 21011KT 10SM CLR 08/01 A2983 RMK AO2 SLP105 T00830011
Loading
Personal Weather Stations






























Interactive Weather Map
Tropical Storm Tracking
New forecast layout! Learn more

10-Day Weather Forecast

Advertisements
Track Severe Weather on mobile